Time;durP1;ratioP1;P1;durP2;ratioP2;P2;SDS_P1;SDS_P2;PMS_P1;PMS_P2;Temp;Humidity;BMP_temperature;BMP_pressure;BME280_temperature;BME280_humidity;BME280_pressure;Samples;Min_cycle;Max_cycle;Signal;HPM_P1;HPM_P2
2023/04/14 00:02:10;;;;;;;0.80;0.80;;;;;;;12.11;89.06;99236.47;5050842;28;20202;-72
2023/04/14 00:04:37;;;;;;;0.70;0.70;;;;;;;12.15;89.60;99235.59;5050336;28;20192;-73
2023/04/14 00:07:04;;;;;;;0.77;0.77;;;;;;;12.18;89.78;99221.72;5038828;28;20195;-72
2023/04/14 00:09:31;;;;;;;1.17;1.17;;;;;;;12.19;89.82;99228.66;5049408;28;20207;-74
2023/04/14 00:12:00;;;;;;;0.60;0.60;;;;;;;12.17;90.58;99228.66;5050622;28;20281;-73
2023/04/14 00:14:26;;;;;;;0.70;0.70;;;;;;;12.06;90.60;99227.84;5050992;28;20325;-73
2023/04/14 00:16:53;;;;;;;0.70;0.70;;;;;;;12.04;90.73;99226.13;5050209;28;20671;-72
2023/04/14 00:19:20;;;;;;;0.80;0.80;;;;;;;11.93;92.21;99226.16;5049177;28;20203;-72
2023/04/14 00:21:47;;;;;;;0.70;0.70;;;;;;;11.94;93.77;99227.91;5050349;28;20595;-74
2023/04/14 00:24:13;;;;;;;0.70;0.70;;;;;;;11.93;94.56;99233.97;5050246;28;20647;-72
2023/04/14 00:26:40;;;;;;;0.80;0.80;;;;;;;11.89;94.53;99230.50;5048738;28;20689;-74
2023/04/14 00:29:08;;;;;;;0.80;0.80;;;;;;;11.56;94.69;99183.84;5050512;28;20723;-72
2023/04/14 00:31:35;;;;;;;0.70;0.70;;;;;;;11.78;95.92;99234.88;5050628;28;20203;-74
2023/04/14 00:34:02;;;;;;;0.80;0.80;;;;;;;11.77;97.12;99233.16;5050411;28;20215;-73
2023/04/14 00:36:28;;;;;;;0.70;0.70;;;;;;;11.60;97.81;99211.53;5051193;28;20204;-74
2023/04/14 00:38:55;;;;;;;3.30;2.88;;;;;;;11.69;98.66;99231.44;5049655;28;20211;-73
2023/04/14 00:41:23;;;;;;;0.73;0.73;;;;;;;11.62;100.00;99222.81;5050431;28;20200;-73
2023/04/14 00:43:53;;;;;;;1.27;1.27;;;;;;;11.70;100.00;99218.41;5050630;28;20259;-73
2023/04/14 00:46:22;;;;;;;0.80;0.80;;;;;;;11.67;100.00;99225.34;5030365;28;20210;-73
2023/04/14 00:48:49;;;;;;;0.80;0.80;;;;;;;11.49;100.00;99209.84;5047952;28;20204;-73
2023/04/14 00:51:16;;;;;;;0.80;0.80;;;;;;;11.35;100.00;99202.09;5014405;28;20261;-73
2023/04/14 00:53:43;;;;;;;0.70;0.70;;;;;;;11.49;100.00;99226.28;5015962;28;20573;-73
2023/04/14 00:56:10;;;;;;;0.80;0.80;;;;;;;11.43;100.00;99223.69;5050308;28;20199;-74
2023/04/14 00:58:36;;;;;;;0.80;0.80;;;;;;;11.29;100.00;99202.09;5050022;28;20210;-72
2023/04/14 01:01:03;;;;;;;0.70;0.70;;;;;;;11.39;100.00;99209.88;5049983;28;20256;-73
2023/04/14 01:03:32;;;;;;;0.73;0.73;;;;;;;11.48;100.00;99210.72;5049793;28;20234;-72
2023/04/14 01:05:59;;;;;;;0.70;0.70;;;;;;;11.43;100.00;99210.72;5049201;28;20211;-72
2023/04/14 01:08:26;;;;;;;0.70;0.70;;;;;;;11.37;100.00;99195.19;5048274;28;20211;-73
2023/04/14 01:11:08;;;;;;;0.80;0.80;;;;;;;11.52;100.00;99204.66;5049962;28;20247;-73
2023/04/14 01:13:43;;;;;;;0.70;0.70;;;;;;;11.35;100.00;99197.75;5047205;28;20218;-73
2023/04/14 01:16:18;;;;;;;0.70;0.70;;;;;;;11.35;100.00;99195.16;5036200;28;20195;-73
2023/04/14 01:18:58;;;;;;;0.70;0.70;;;;;;;11.31;100.00;99193.44;5050187;28;20290;-72
2023/04/14 01:21:31;;;;;;;0.70;0.70;;;;;;;11.32;100.00;99192.59;5049305;28;20207;-73
2023/04/14 01:24:30;;;;;;;0.88;0.88;;;;;;;11.41;100.00;99194.31;5033774;28;20223;-74
2023/04/14 01:27:07;;;;;;;0.80;0.80;;;;;;;11.31;100.00;99175.28;5042465;28;20210;-74
2023/04/14 01:29:54;;;;;;;0.70;0.70;;;;;;;11.40;100.00;99187.38;5050569;28;20608;-75
2023/04/14 01:32:25;;;;;;;0.80;0.80;;;;;;;11.55;100.00;99202.91;5050648;28;20199;-72
2023/04/14 01:34:55;;;;;;;0.70;0.70;;;;;;;11.58;100.00;99204.63;5049529;28;20581;-73
2023/04/14 01:37:30;;;;;;;0.80;0.80;;;;;;;11.50;100.00;99202.06;5049829;28;20211;-73
2023/04/14 01:40:01;;;;;;;0.80;0.80;;;;;;;11.51;100.00;99197.72;5050590;28;20230;-74
2023/04/14 01:42:32;;;;;;;0.80;0.80;;;;;;;11.43;100.00;99175.25;5050145;28;20231;-74
2023/04/14 01:45:04;;;;;;;0.80;0.80;;;;;;;11.48;100.00;99187.38;5052318;28;20234;-73
2023/04/14 01:47:35;;;;;;;1.08;1.08;;;;;;;11.37;100.00;99190.84;5054084;28;20207;-73
2023/04/14 01:50:04;;;;;;;0.73;0.73;;;;;;;11.29;100.00;99186.53;5054358;28;20206;-75
2023/04/14 01:52:31;;;;;;;0.80;0.80;;;;;;;11.18;100.00;99168.41;5054130;28;20286;-73
2023/04/14 01:55:00;;;;;;;0.88;0.88;;;;;;;11.27;100.00;99178.75;5035471;28;20203;-72
2023/04/14 01:57:29;;;;;;;0.70;0.70;;;;;;;11.27;100.00;99176.16;5019650;28;20694;-73
2023/04/14 01:59:59;;;;;;;0.70;0.70;;;;;;;11.24;100.00;99175.28;5053478;28;20676;-74
2023/04/14 02:02:27;;;;;;;0.70;0.70;;;;;;;11.25;100.00;99167.53;5053954;28;20662;-73
2023/04/14 02:04:57;;;;;;;1.05;1.05;;;;;;;11.12;100.00;99146.81;5053382;28;20219;-74
2023/04/14 02:07:25;;;;;;;0.70;0.70;;;;;;;11.37;100.00;99177.88;5054348;28;20273;-74
2023/04/14 02:09:53;;;;;;;0.65;0.65;;;;;;;11.40;98.86;99190.84;5052053;28;20208;-73
2023/04/14 02:12:22;;;;;;;0.60;0.60;;;;;;;11.45;98.42;99180.44;5053940;28;20235;-73
2023/04/14 02:14:51;;;;;;;0.70;0.70;;;;;;;11.51;97.72;99187.34;5053772;28;20203;-74
2023/04/14 02:17:20;;;;;;;0.70;0.70;;;;;;;11.54;97.13;99192.53;5053797;28;20247;-74
2023/04/14 02:19:48;;;;;;;0.70;0.70;;;;;;;11.47;96.40;99183.91;5052939;28;20231;-74
2023/04/14 02:22:16;;;;;;;0.70;0.70;;;;;;;11.47;96.14;99176.09;5053594;28;20218;-73
2023/04/14 02:24:43;;;;;;;0.70;0.70;;;;;;;11.49;94.84;99186.47;5053570;28;20231;-73
2023/04/14 02:27:13;;;;;;;0.70;0.70;;;;;;;11.58;93.97;99189.06;5054521;28;20199;-72
2023/04/14 02:29:45;;;;;;;0.70;0.70;;;;;;;11.49;92.52;99171.75;5052649;28;20204;-73
2023/04/14 02:32:29;;;;;;;0.70;0.70;;;;;;;11.62;92.10;99180.38;5014039;28;20203;-74
2023/04/14 02:35:01;;;;;;;0.70;0.70;;;;;;;11.62;91.32;99180.38;5053387;28;20218;-74
2023/04/14 02:37:35;;;;;;;0.60;0.60;;;;;;;11.71;91.86;99178.66;5053790;28;20206;-75
2023/04/14 02:40:11;;;;;;;0.68;0.68;;;;;;;11.62;91.91;99160.50;5052092;28;20204;-73
2023/04/14 02:42:43;;;;;;;0.90;0.90;;;;;;;11.52;93.07;99148.41;5053700;28;20207;-73
2023/04/14 02:45:15;;;;;;;0.70;0.70;;;;;;;11.53;93.90;99170.03;5049767;28;20230;-74
2023/04/14 02:47:46;;;;;;;0.70;0.70;;;;;;;11.53;93.96;99170.03;5051986;28;20283;-75
2023/04/14 02:50:15;;;;;;;0.60;0.60;;;;;;;11.44;94.04;99179.59;5024301;28;20206;-73
2023/04/14 02:52:46;;;;;;;0.80;0.80;;;;;;;11.37;94.98;99167.50;5051511;28;20269;-73
2023/04/14 02:55:13;;;;;;;0.70;0.70;;;;;;;11.39;95.58;99190.84;5052468;28;20310;-73
2023/04/14 02:57:41;;;;;;;0.70;0.70;;;;;;;11.40;95.01;99193.44;5052734;28;20218;-73
2023/04/14 03:00:09;;;;;;;0.70;0.70;;;;;;;11.39;95.83;99189.09;5051635;28;20203;-72
2023/04/14 03:02:38;;;;;;;0.70;0.70;;;;;;;11.39;96.98;99193.44;5033971;28;20210;-72
2023/04/14 03:05:06;;;;;;;0.70;0.70;;;;;;;11.26;96.45;99170.97;5053099;28;20226;-73
2023/04/14 03:07:35;;;;;;;0.70;0.70;;;;;;;11.37;96.76;99190.84;5053137;28;20199;-73
2023/04/14 03:10:03;;;;;;;0.80;0.80;;;;;;;11.44;94.78;99195.16;5051853;28;20203;-74
2023/04/14 03:12:32;;;;;;;0.77;0.77;;;;;;;11.43;94.71;99190.84;5052763;28;20209;-73
2023/04/14 03:15:00;;;;;;;0.80;0.80;;;;;;;11.42;94.75;99186.50;5051916;28;20675;-73
2023/04/14 03:17:28;;;;;;;0.80;0.80;;;;;;;11.36;95.66;99186.53;5018176;28;20207;-73
2023/04/14 03:19:55;;;;;;;0.70;0.70;;;;;;;11.23;96.12;99182.25;5033689;28;20671;-73
2023/04/14 03:22:25;;;;;;;0.70;0.70;;;;;;;11.30;96.20;99178.75;5052007;28;20196;-74
2023/04/14 03:24:57;;;;;;;0.70;0.70;;;;;;;11.28;96.91;99185.66;5045946;28;20226;-74
2023/04/14 03:27:26;;;;;;;0.75;0.75;;;;;;;11.35;97.03;99187.38;5052178;28;20195;-74
2023/04/14 03:29:55;;;;;;;2.78;2.55;;;;;;;11.33;97.38;99188.25;5050946;28;20287;-73
2023/04/14 03:32:25;;;;;;;0.70;0.70;;;;;;;11.35;97.73;99183.91;5051560;28;20214;-72
2023/04/14 03:34:56;;;;;;;0.70;0.70;;;;;;;11.34;98.14;99193.44;5052572;28;20209;-72
2023/04/14 03:37:26;;;;;;;0.65;0.65;;;;;;;11.34;98.51;99190.84;5052022;28;20208;-73
2023/04/14 03:39:54;;;;;;;1.00;1.00;;;;;;;11.17;99.02;99169.25;5051836;28;20196;-74
2023/04/14 03:42:23;;;;;;;0.70;0.70;;;;;;;11.13;100.00;99154.56;5052268;28;20217;-73
2023/04/14 03:44:55;;;;;;;0.70;0.70;;;;;;;11.40;100.00;99183.06;5035411;28;20234;-72
2023/04/14 03:47:23;;;;;;;0.90;0.90;;;;;;;11.34;100.00;99175.28;5052460;28;20643;-72
2023/04/14 03:49:55;;;;;;;0.73;0.73;;;;;;;11.21;100.00;99151.97;5050742;28;20192;-72
2023/04/14 03:52:23;;;;;;;0.70;0.70;;;;;;;11.43;100.00;99180.44;5051843;28;20222;-75
2023/04/14 03:54:53;;;;;;;0.70;0.70;;;;;;;11.56;100.00;99190.81;5051163;28;20587;-73
2023/04/14 03:57:22;;;;;;;0.70;0.70;;;;;;;11.62;100.00;99185.59;5051813;28;20211;-73
2023/04/14 03:59:52;;;;;;;0.80;0.80;;;;;;;11.71;100.00;99189.03;5051090;28;20919;-73
2023/04/14 04:02:19;;;;;;;0.77;0.77;;;;;;;11.70;100.00;99176.88;5049876;28;20207;-73
2023/04/14 04:04:48;;;;;;;0.73;0.73;;;;;;;11.99;99.71;99191.50;5051128;28;20820;-72
2023/04/14 04:07:17;;;;;;;0.70;0.70;;;;;;;12.09;99.78;99183.69;5051444;28;20685;-73
2023/04/14 04:09:47;;;;;;;0.70;0.70;;;;;;;12.25;99.30;99185.28;5050379;28;20203;-73
2023/04/14 04:12:17;;;;;;;0.70;0.70;;;;;;;12.30;98.15;99183.53;5050443;28;20652;-73
2023/04/14 04:14:44;;;;;;;0.70;0.70;;;;;;;12.18;97.44;99188.81;5051288;28;20253;-73
2023/04/14 04:17:14;;;;;;;0.73;0.73;;;;;;;12.21;97.32;99183.59;5050783;28;20214;-73
2023/04/14 04:19:44;;;;;;;1.10;1.10;;;;;;;12.20;98.08;99192.25;5049816;28;20204;-72
2023/04/14 04:22:16;;;;;;;0.70;0.70;;;;;;;12.15;98.73;99186.22;5050849;28;20204;-71
2023/04/14 04:24:46;;;;;;;0.70;0.70;;;;;;;11.69;98.28;99110.25;5051086;28;20231;-73
2023/04/14 04:27:14;;;;;;;0.80;0.80;;;;;;;11.99;98.47;99161.19;5051207;28;20283;-74
2023/04/14 04:29:41;;;;;;;0.70;0.70;;;;;;;12.26;97.00;99181.84;5050844;28;20207;-72
2023/04/14 04:32:08;;;;;;;0.70;0.70;;;;;;;12.21;96.78;99165.38;5051473;28;20728;-73
2023/04/14 04:34:38;;;;;;;0.70;0.70;;;;;;;12.28;96.11;99166.22;5032151;28;20685;-72
2023/04/14 04:37:06;;;;;;;0.80;0.80;;;;;;;12.48;94.81;99179.09;5051024;28;20210;-73
2023/04/14 04:39:33;;;;;;;0.90;0.90;;;;;;;12.15;93.42;99100.47;5050486;28;20253;-74
2023/04/14 04:42:03;;;;;;;0.70;0.70;;;;;;;12.91;91.69;99167.47;5051314;28;20199;-75
2023/04/14 04:44:32;;;;;;;0.98;0.98;;;;;;;13.20;88.96;99165.44;5051063;28;20676;-74
2023/04/14 04:46:59;;;;;;;0.70;0.70;;;;;;;13.44;86.21;99168.69;5051028;28;20231;-75
2023/04/14 04:49:26;;;;;;;0.70;0.70;;;;;;;13.93;83.69;99132.47;5048230;28;20199;-72
2023/04/14 04:51:55;;;;;;;0.70;0.70;;;;;;;14.87;83.12;99176.25;5050533;28;20663;-73
2023/04/14 04:54:22;;;;;;;0.60;0.60;;;;;;;15.53;76.55;99170.72;5050145;28;20222;-74
2023/04/14 04:56:49;;;;;;;0.60;0.60;;;;;;;15.85;73.49;99165.69;5050401;28;20750;-73
2023/04/14 04:59:16;;;;;;;0.70;0.70;;;;;;;15.73;74.32;99166.78;5029673;28;20206;-73
2023/04/14 05:01:43;;;;;;;0.70;0.70;;;;;;;15.54;76.19;99151.53;5048432;28;20203;-73
2023/04/14 05:04:10;;;;;;;0.63;0.63;;;;;;;15.66;76.07;99152.13;5051153;28;20238;-73
2023/04/14 05:06:37;;;;;;;1.08;1.08;;;;;;;15.12;80.10;99141.00;5050564;28;20199;-75
2023/04/14 05:09:06;;;;;;;0.65;0.65;;;;;;;15.08;81.89;99136.72;5050801;28;20287;-72
2023/04/14 05:11:33;;;;;;;2.08;1.98;;;;;;;15.09;82.07;99135.81;5049103;28;20223;-73
2023/04/14 05:14:00;;;;;;;0.70;0.70;;;;;;;14.89;86.02;99130.09;5050699;28;20203;-73
2023/04/14 05:16:28;;;;;;;0.93;0.93;;;;;;;14.50;86.57;99133.38;5050752;28;20195;-73
2023/04/14 05:18:56;;;;;;;0.80;0.80;;;;;;;14.36;87.78;99100.56;5049731;28;20208;-73
2023/04/14 05:21:23;;;;;;;0.70;0.70;;;;;;;14.53;86.59;99115.94;5049288;28;20226;-73
2023/04/14 05:23:50;;;;;;;1.00;1.00;;;;;;;14.29;90.20;99111.94;5049360;28;20196;-70
2023/04/14 05:26:18;;;;;;;0.80;0.80;;;;;;;14.48;87.54;99111.69;5040644;28;20203;-73
2023/04/14 05:28:45;;;;;;;0.60;0.60;;;;;;;14.31;85.46;99115.38;5050359;28;20200;-72
2023/04/14 05:31:11;;;;;;;0.70;0.70;;;;;;;13.88;88.35;99109.94;5050463;28;20227;-73
2023/04/14 05:33:38;;;;;;;0.90;0.90;;;;;;;13.12;93.21;99084.00;5049335;28;20203;-71
2023/04/14 05:36:06;;;;;;;0.80;0.80;;;;;;;13.28;94.46;99106.38;5050071;28;20785;-72
2023/04/14 05:38:33;;;;;;;1.02;1.02;;;;;;;13.21;95.16;99089.09;5048262;28;20226;-70
2023/04/14 05:41:00;;;;;;;0.70;0.70;;;;;;;13.33;96.78;99108.94;5050209;28;20203;-72
2023/04/14 05:43:28;;;;;;;0.80;0.80;;;;;;;13.10;97.40;99096.16;5050141;28;21933;-72
2023/04/14 05:45:57;;;;;;;0.70;0.70;;;;;;;13.34;96.77;99108.88;5047155;28;20230;-72
2023/04/14 05:48:26;;;;;;;0.60;0.60;;;;;;;13.35;94.64;99097.59;5050193;28;20269;-71
2023/04/14 05:50:53;;;;;;;0.70;0.70;;;;;;;13.57;94.20;99123.38;5047706;28;20204;-72
2023/04/14 05:53:20;;;;;;;0.70;0.70;;;;;;;13.47;93.54;99117.44;5045936;28;20234;-73
2023/04/14 05:55:47;;;;;;;0.70;0.70;;;;;;;13.78;94.92;99125.72;5049067;28;20210;-73
2023/04/14 05:58:14;;;;;;;0.70;0.70;;;;;;;13.95;91.50;99130.72;5050869;28;20203;-75
2023/04/14 06:00:42;;;;;;;0.80;0.80;;;;;;;14.39;89.94;99134.41;5051483;28;20254;-74
2023/04/14 06:03:09;;;;;;;0.80;0.80;;;;;;;14.48;91.87;99119.50;5046045;28;20282;-75
2023/04/14 06:05:36;;;;;;;0.88;0.88;;;;;;;14.90;86.58;99155.31;5050043;28;20242;-73
2023/04/14 06:08:03;;;;;;;0.70;0.70;;;;;;;15.07;85.46;99155.88;5049755;28;20208;-73
2023/04/14 06:10:30;;;;;;;0.93;0.93;;;;;;;15.15;83.97;99155.75;5049145;28;20246;-74
2023/04/14 06:12:57;;;;;;;5.57;4.32;;;;;;;15.42;82.09;99165.66;5049582;28;20286;-74
2023/04/14 06:15:27;;;;;;;0.70;0.70;;;;;;;15.45;87.67;99146.44;5048324;28;20655;-71
2023/04/14 06:17:55;;;;;;;1.27;1.17;;;;;;;15.35;81.33;99130.97;5014016;28;20206;-73
2023/04/14 06:20:22;;;;;;;1.00;1.00;;;;;;;15.58;86.77;99138.38;5048424;28;20685;-71
2023/04/14 06:22:48;;;;;;;0.80;0.80;;;;;;;15.48;87.64;99126.34;5044606;28;20202;-72
2023/04/14 06:25:15;;;;;;;0.70;0.70;;;;;;;14.73;86.54;99128.66;5048566;28;20238;-72
2023/04/14 06:27:42;;;;;;;0.90;0.90;;;;;;;14.63;88.56;99121.84;5029861;28;20200;-73
2023/04/14 06:30:10;;;;;;;1.33;1.33;;;;;;;14.83;88.11;99119.78;5049460;28;20266;-71
2023/04/14 06:32:37;;;;;;;0.80;0.80;;;;;;;14.84;89.40;99103.22;5050957;28;20210;-72
2023/04/14 06:35:07;;;;;;;0.70;0.70;;;;;;;14.77;93.25;99115.50;5052789;28;20214;-73
2023/04/14 06:37:34;;;;;;;0.70;0.70;;;;;;;14.47;97.28;99115.16;5051366;28;20319;-71
2023/04/14 06:40:01;;;;;;;0.70;0.70;;;;;;;14.54;98.36;99109.84;5048484;28;20203;-71
2023/04/14 06:42:27;;;;;;;0.70;0.70;;;;;;;14.71;100.00;99099.09;5016150;28;20204;-71
2023/04/14 06:44:54;;;;;;;0.70;0.70;;;;;;;14.95;100.00;99097.81;5050751;28;20226;-71
2023/04/14 06:47:21;;;;;;;0.70;0.70;;;;;;;15.11;99.66;99118.38;5007927;28;20210;-71
2023/04/14 06:49:48;;;;;;;0.60;0.60;;;;;;;14.68;100.00;99093.94;5046410;28;20196;-71
2023/04/14 06:52:17;;;;;;;0.60;0.60;;;;;;;14.64;100.00;99077.47;5051960;28;20211;-72
2023/04/14 06:54:43;;;;;;;0.80;0.80;;;;;;;14.74;100.00;99071.22;5052263;28;20582;-71
2023/04/14 06:57:10;;;;;;;0.80;0.80;;;;;;;14.68;100.00;99057.41;5050849;28;20290;-70
2023/04/14 06:59:37;;;;;;;0.70;0.70;;;;;;;14.97;100.00;99073.41;5047546;28;20215;-71
2023/04/14 07:02:05;;;;;;;0.70;0.70;;;;;;;15.25;100.00;99074.59;5049537;28;20195;-71
2023/04/14 07:04:31;;;;;;;0.70;0.70;;;;;;;15.22;100.00;99086.84;5051067;28;20599;-71
2023/04/14 07:07:01;;;;;;;0.80;0.80;;;;;;;15.41;97.08;99066.44;5042863;28;20671;-77
2023/04/14 07:09:29;;;;;;;0.70;0.70;;;;;;;15.47;93.60;99014.06;5053234;28;20195;-77
2023/04/14 07:11:57;;;;;;;0.60;0.60;;;;;;;16.23;98.11;99075.94;5053162;28;20229;-82
2023/04/14 07:14:24;;;;;;;0.70;0.70;;;;;;;16.47;88.88;99079.72;5050331;28;20290;-83
2023/04/14 07:16:51;;;;;;;0.70;0.70;;;;;;;17.08;84.93;99073.78;5043341;28;20920;-72
2023/04/14 07:19:18;;;;;;;0.60;0.60;;;;;;;17.34;82.06;99079.13;5042086;28;20678;-72
2023/04/14 07:21:45;;;;;;;0.70;0.70;;;;;;;18.08;78.90;99071.69;5047789;28;20212;-73
2023/04/14 07:24:12;;;;;;;0.60;0.60;;;;;;;17.76;78.60;99063.97;5051032;28;20258;-74
2023/04/14 07:26:41;;;;;;;0.70;0.70;;;;;;;18.38;75.44;99074.22;5050662;28;20236;-73
2023/04/14 07:29:08;;;;;;;0.70;0.70;;;;;;;18.16;72.66;99077.53;5048232;28;20659;-73
2023/04/14 07:31:36;;;;;;;0.80;0.80;;;;;;;18.23;71.99;99076.44;5049202;28;20211;-74
2023/04/14 07:34:03;;;;;;;0.75;0.75;;;;;;;18.05;68.69;99047.34;5051230;28;20265;-72
2023/04/14 07:36:31;;;;;;;0.70;0.70;;;;;;;18.52;68.56;99066.78;5050335;28;20207;-72
2023/04/14 07:38:58;;;;;;;0.70;0.70;;;;;;;19.02;66.86;99079.03;5050939;28;20655;-74
2023/04/14 07:41:25;;;;;;;0.70;0.70;;;;;;;18.34;67.20;99081.34;5034787;28;20206;-74
2023/04/14 07:43:56;;;;;;;2.00;1.90;;;;;;;18.57;67.53;99055.25;5044447;28;20200;-72
2023/04/14 07:46:23;;;;;;;0.70;0.70;;;;;;;19.23;65.59;99064.28;5043408;28;20250;-72
2023/04/14 07:48:50;;;;;;;0.60;0.60;;;;;;;19.46;64.75;99089.78;5049714;28;20632;-71
2023/04/14 07:51:17;;;;;;;0.70;0.70;;;;;;;19.12;66.14;99076.97;5051461;28;20202;-73
2023/04/14 07:53:44;;;;;;;0.70;0.70;;;;;;;19.02;66.88;99071.16;5050833;28;20210;-73
2023/04/14 07:56:11;;;;;;;0.63;0.63;;;;;;;18.84;68.59;99058.66;5048797;28;20216;-71
2023/04/14 07:58:38;;;;;;;0.70;0.70;;;;;;;18.66;67.43;99038.28;5049087;28;20193;-72
2023/04/14 08:01:07;;;;;;;0.70;0.70;;;;;;;18.60;70.54;99020.13;5050919;28;20202;-70
2023/04/14 08:03:36;;;;;;;0.60;0.60;;;;;;;18.56;70.69;99019.38;5047956;28;20671;-70
2023/04/14 08:06:04;;;;;;;0.70;0.70;;;;;;;18.68;71.01;99010.22;5047664;28;20219;-71
2023/04/14 08:08:30;;;;;;;0.65;0.65;;;;;;;18.85;69.60;98988.63;5046370;28;20218;-70
2023/04/14 08:10:57;;;;;;;0.60;0.60;;;;;;;19.07;67.61;99000.06;5048810;28;20231;-70
2023/04/14 08:13:24;;;;;;;0.60;0.60;;;;;;;19.23;68.34;98988.94;5044992;28;20295;-71
2023/04/14 08:15:51;;;;;;;1.10;1.10;;;;;;;18.99;70.41;98957.44;5049987;28;20203;-71
2023/04/14 08:18:19;;;;;;;0.75;0.75;;;;;;;19.10;69.55;98958.78;5045201;28;20216;-75
2023/04/14 08:20:46;;;;;;;0.82;0.82;;;;;;;19.15;68.83;98943.69;5016875;28;20191;-72
2023/04/14 08:23:12;;;;;;;0.60;0.60;;;;;;;19.48;66.12;98935.44;5035830;28;20207;-73
2023/04/14 08:25:39;;;;;;;0.70;0.70;;;;;;;19.85;65.14;98940.09;5051701;28;20219;-71
2023/04/14 08:28:06;;;;;;;0.63;0.63;;;;;;;19.47;63.29;98921.47;5039760;28;20214;-72
2023/04/14 08:30:33;;;;;;;1.13;1.13;;;;;;;19.65;61.96;98922.50;5047850;28;20874;-73
2023/04/14 08:32:59;;;;;;;0.70;0.70;;;;;;;19.78;62.05;98910.56;5031060;28;20207;-73
2023/04/14 08:35:28;;;;;;;0.60;0.60;;;;;;;20.40;60.73;98917.63;5048458;28;20678;-72
2023/04/14 08:37:55;;;;;;;0.80;0.80;;;;;;;19.96;61.61;98878.22;5049159;28;20199;-80
2023/04/14 08:40:24;;;;;;;0.80;0.80;;;;;;;20.60;61.15;98921.09;5051343;28;20207;-79
2023/04/14 08:42:51;;;;;;;0.70;0.70;;;;;;;20.33;61.91;98924.06;5049237;28;20207;-78
2023/04/14 08:45:19;;;;;;;0.70;0.70;;;;;;;20.65;61.91;98913.81;5052739;28;20223;-80
2023/04/14 08:47:47;;;;;;;0.70;0.70;;;;;;;20.48;64.11;98907.59;5045620;28;20203;-71
2023/04/14 08:50:18;;;;;;;0.70;0.70;;;;;;;20.72;63.06;98904.75;5058111;28;20598;-71
2023/04/14 08:52:48;;;;;;;0.70;0.70;;;;;;;21.18;61.72;98948.34;5018351;28;20211;-72
2023/04/14 08:55:16;;;;;;;0.70;0.70;;;;;;;21.55;61.17;98938.69;5060342;28;20199;-72
2023/04/14 08:57:45;;;;;;;0.70;0.70;;;;;;;21.43;61.49;98931.38;5050907;28;20246;-72
2023/04/14 09:00:14;;;;;;;0.70;0.70;;;;;;;21.90;60.89;98940.53;5050000;28;20272;-72
2023/04/14 09:02:41;;;;;;;0.70;0.70;;;;;;;22.23;59.48;98944.09;5050375;28;20894;-72
2023/04/14 09:05:10;;;;;;;1.20;1.10;;;;;;;22.56;58.48;98945.97;5050833;28;20225;-72
2023/04/14 09:07:37;;;;;;;0.80;0.80;;;;;;;22.57;57.75;98963.53;5050607;28;20203;-72
2023/04/14 09:10:06;;;;;;;1.85;1.73;;;;;;;22.56;57.72;98973.25;5049812;28;20601;-71
2023/04/14 09:12:34;;;;;;;0.70;0.70;;;;;;;22.59;57.60;98964.28;5044456;28;20211;-70
2023/04/14 09:15:03;;;;;;;0.70;0.70;;;;;;;22.96;56.69;98972.06;5051353;28;20210;-72
2023/04/14 09:17:31;;;;;;;0.70;0.70;;;;;;;22.46;57.72;98976.44;5046782;28;21585;-75
2023/04/14 09:19:58;;;;;;;0.70;0.70;;;;;;;22.74;57.64;98968.81;5030528;28;20721;-69
2023/04/14 09:22:25;;;;;;;0.70;0.70;;;;;;;23.03;55.95;98964.66;5011520;28;20281;-75
2023/04/14 09:24:52;;;;;;;0.80;0.80;;;;;;;23.10;55.80;98963.38;5043617;28;20207;-72
2023/04/14 09:27:20;;;;;;;0.70;0.70;;;;;;;23.48;54.02;98940.13;5012227;28;20228;-72
2023/04/14 09:29:49;;;;;;;0.80;0.80;;;;;;;23.88;53.04;98954.63;5046497;28;20258;-72
2023/04/14 09:32:16;;;;;;;0.80;0.80;;;;;;;23.79;51.86;98953.38;5053128;28;20556;-72
2023/04/14 09:34:51;;;;;;;0.95;0.95;;;;;;;24.31;51.91;98951.25;5055299;28;20200;-72
2023/04/14 09:37:18;;;;;;;0.85;0.85;;;;;;;23.71;49.88;98945.00;5050653;28;20191;-73
2023/04/14 09:39:50;;;;;;;6.75;1.40;;;;;;;24.15;48.79;98956.56;5049465;28;20222;-69
2023/04/14 09:42:17;;;;;;;0.90;0.90;;;;;;;24.01;49.88;98964.44;5055151;28;20234;-72
2023/04/14 09:44:56;;;;;;;0.80;0.80;;;;;;;23.94;49.11;98941.91;5049661;28;20207;-72
2023/04/14 09:47:24;;;;;;;0.80;0.80;;;;;;;24.09;48.43;98964.84;5045555;28;20235;-74
2023/04/14 09:50:02;;;;;;;1.20;1.02;;;;;;;24.55;46.70;98944.47;5049732;28;20302;-75
2023/04/14 09:52:40;;;;;;;0.80;0.80;;;;;;;24.82;46.01;98980.88;5022098;28;20211;-75
2023/04/14 09:55:09;;;;;;;1.30;1.30;;;;;;;25.04;44.98;98984.81;5040313;28;20196;-74
2023/04/14 09:57:37;;;;;;;1.08;1.08;;;;;;;24.30;45.31;98986.63;5034623;28;20196;-76
2023/04/14 10:00:18;;;;;;;1.00;1.00;;;;;;;24.17;45.73;98977.69;5038812;28;20290;-74
2023/04/14 10:02:49;;;;;;;1.10;1.10;;;;;;;24.01;46.08;98963.56;5035764;28;20219;-75
2023/04/14 10:05:19;;;;;;;0.90;0.90;;;;;;;24.08;47.02;98946.38;5043137;28;20199;-75
2023/04/14 10:07:46;;;;;;;1.15;1.15;;;;;;;23.78;47.98;98972.84;5049835;28;20191;-77
2023/04/14 10:10:13;;;;;;;0.90;0.90;;;;;;;23.84;47.88;98971.63;5045830;28;20290;-73
2023/04/14 10:12:43;;;;;;;0.70;0.70;;;;;;;23.95;48.64;98975.38;5044386;28;20203;-73
2023/04/14 10:15:13;;;;;;;0.90;0.90;;;;;;;24.22;49.06;98967.69;5044454;28;20233;-76
2023/04/14 10:17:41;;;;;;;0.70;0.70;;;;;;;24.37;47.49;98976.50;5051317;28;20207;-72
2023/04/14 10:20:09;;;;;;;5.38;2.00;;;;;;;23.70;45.27;98975.91;5032584;28;20195;-73
2023/04/14 10:22:36;;;;;;;0.70;0.70;;;;;;;23.74;45.72;98976.59;5033743;28;20683;-73
2023/04/14 10:25:04;;;;;;;0.70;0.70;;;;;;;23.94;45.25;98978.97;5044052;28;20204;-74
2023/04/14 10:27:32;;;;;;;0.88;0.88;;;;;;;24.02;44.39;98968.78;5050551;28;20310;-78
2023/04/14 10:30:00;;;;;;;0.80;0.80;;;;;;;23.85;44.85;98949.53;5052633;28;20541;-84
2023/04/14 10:32:32;;;;;;;0.70;0.70;;;;;;;23.79;44.92;98952.53;5051157;28;20207;-75
2023/04/14 10:35:04;;;;;;;0.90;0.90;;;;;;;23.72;44.93;98953.81;5036216;28;20204;-75
2023/04/14 10:37:31;;;;;;;0.90;0.90;;;;;;;23.63;45.32;98979.84;5039652;28;20207;-73
2023/04/14 10:39:59;;;;;;;0.70;0.70;;;;;;;23.29;45.64;98977.31;5049451;28;20212;-77
2023/04/14 10:42:27;;;;;;;0.88;0.88;;;;;;;23.03;45.98;98994.59;5049257;28;20199;-74
2023/04/14 10:45:05;;;;;;;0.73;0.73;;;;;;;23.05;45.83;98987.41;5054029;28;20206;-76
2023/04/14 10:47:34;;;;;;;0.90;0.90;;;;;;;23.13;46.22;98995.81;5016917;28;20226;-74
2023/04/14 10:50:12;;;;;;;0.70;0.70;;;;;;;23.34;46.04;98995.56;5052757;28;20609;-74
2023/04/14 10:52:48;;;;;;;1.27;1.17;;;;;;;22.84;47.09;98991.19;5050413;28;20241;-74
2023/04/14 10:55:15;;;;;;;0.80;0.80;;;;;;;23.18;47.55;98990.28;5045225;28;20671;-75
2023/04/14 10:57:43;;;;;;;0.70;0.70;;;;;;;22.88;47.29;98979.53;5039415;28;20211;-73
2023/04/14 11:00:24;;;;;;;0.80;0.80;;;;;;;22.93;48.11;98993.38;5051093;28;20246;-74
2023/04/14 11:02:57;;;;;;;0.68;0.68;;;;;;;23.10;48.12;98995.97;5052749;28;20643;-74
2023/04/14 11:05:24;;;;;;;0.70;0.70;;;;;;;23.01;47.81;98979.75;5047763;28;20214;-75
2023/04/14 11:07:56;;;;;;;0.60;0.60;;;;;;;23.21;48.54;98982.16;5053085;28;20228;-76
2023/04/14 11:10:36;;;;;;;0.80;0.80;;;;;;;23.26;48.29;98981.94;5017111;28;20660;-75
2023/04/14 11:13:05;;;;;;;0.75;0.75;;;;;;;23.13;48.74;98977.28;5048104;28;20211;-72
2023/04/14 11:15:46;;;;;;;0.80;0.80;;;;;;;23.28;47.92;98975.59;5045400;28;20579;-73
2023/04/14 11:18:17;;;;;;;0.73;0.73;;;;;;;22.73;49.59;98983.81;5048941;28;20210;-73
2023/04/14 11:20:44;;;;;;;0.75;0.75;;;;;;;22.53;50.23;98989.25;5047257;28;20691;-74
2023/04/14 11:23:13;;;;;;;0.85;0.85;;;;;;;22.59;50.41;98983.66;5050074;28;20207;-72
2023/04/14 11:25:40;;;;;;;0.70;0.70;;;;;;;23.05;49.98;98997.13;5011680;28;20286;-75
2023/04/14 11:28:07;;;;;;;0.80;0.80;;;;;;;22.90;50.78;98993.50;5032388;28;20322;-75
2023/04/14 11:30:34;;;;;;;0.82;0.82;;;;;;;22.83;50.36;98986.81;5047902;28;20215;-75
2023/04/14 11:33:01;;;;;;;0.80;0.80;;;;;;;23.53;50.10;98981.31;5047716;28;20195;-75
2023/04/14 11:35:30;;;;;;;0.70;0.70;;;;;;;24.00;49.82;98968.03;5051008;28;20206;-74
2023/04/14 11:37:58;;;;;;;0.70;0.70;;;;;;;23.97;50.36;98975.31;5050731;28;20204;-77
2023/04/14 11:40:27;;;;;;;0.70;0.70;;;;;;;24.10;50.32;98952.47;5051452;28;20215;-73